createdAt,value
2023-02-26T00:00:22.342Z,34.32
2023-02-26T00:01:22.317Z,34.48
2023-02-26T00:02:22.369Z,34.16
2023-02-26T00:03:22.318Z,34.00
2023-02-26T00:04:22.301Z,34.48
2023-02-26T00:05:22.296Z,34.32
2023-02-26T00:06:22.279Z,34.64
2023-02-26T00:07:22.307Z,34.32
2023-02-26T00:08:22.256Z,34.16
2023-02-26T00:09:22.291Z,34.00
2023-02-26T00:10:22.234Z,35.29
2023-02-26T00:11:22.240Z,34.48
2023-02-26T00:12:22.226Z,35.77
2023-02-26T00:13:22.226Z,34.97
2023-02-26T00:14:22.202Z,34.00
2023-02-26T00:15:22.219Z,36.09
2023-02-26T00:16:22.251Z,34.64
2023-02-26T00:17:22.233Z,34.16
2023-02-26T00:18:22.154Z,34.64
2023-02-26T00:19:22.179Z,34.64
2023-02-26T00:20:22.160Z,34.48
2023-02-26T00:21:22.121Z,34.64
2023-02-26T00:22:22.138Z,34.48
2023-02-26T00:23:22.108Z,35.13
2023-02-26T00:24:22.104Z,34.32
2023-02-26T00:25:22.096Z,34.64
2023-02-26T00:26:22.084Z,36.74
2023-02-26T00:27:22.078Z,35.61
2023-02-26T00:28:22.056Z,34.48
2023-02-26T00:29:22.041Z,34.64
2023-02-26T00:30:22.045Z,34.32
2023-02-26T00:31:22.144Z,34.32
2023-02-26T00:32:22.088Z,34.32
2023-02-26T00:33:22.007Z,34.64
2023-02-26T00:34:21.994Z,34.32
2023-02-26T00:35:21.987Z,34.80
2023-02-26T00:36:21.977Z,34.97
2023-02-26T00:37:21.955Z,34.48
2023-02-26T00:38:21.952Z,34.16
2023-02-26T00:39:21.961Z,34.16
2023-02-26T00:40:21.937Z,34.32
2023-02-26T00:41:21.974Z,34.32
2023-02-26T00:42:21.915Z,34.97
2023-02-26T00:43:21.912Z,34.48
2023-02-26T00:44:21.899Z,34.16
2023-02-26T00:45:21.884Z,34.64
2023-02-26T00:46:21.955Z,34.48
2023-02-26T00:47:21.862Z,34.64
2023-02-26T00:48:21.861Z,34.48
2023-02-26T00:49:21.865Z,34.64
2023-02-26T00:50:21.838Z,34.64
2023-02-26T00:51:21.820Z,34.00
2023-02-26T00:52:21.817Z,34.64
2023-02-26T00:53:21.836Z,34.48
2023-02-26T00:54:21.789Z,34.32
2023-02-26T00:55:21.794Z,34.64
2023-02-26T00:56:21.963Z,34.48
2023-02-26T00:57:21.793Z,34.32
2023-02-26T00:58:21.746Z,34.16
2023-02-26T00:59:21.730Z,34.80
2023-02-26T01:00:21.781Z,34.48
2023-02-26T01:01:21.721Z,34.48
2023-02-26T01:02:21.716Z,34.48
2023-02-26T01:03:21.690Z,35.29
2023-02-26T01:04:21.717Z,34.64
2023-02-26T01:05:21.675Z,34.64
2023-02-26T01:06:21.687Z,34.32
2023-02-26T01:07:21.695Z,34.64
2023-02-26T01:08:21.659Z,34.64
2023-02-26T01:09:21.654Z,34.00
2023-02-26T01:10:21.650Z,34.64
2023-02-26T01:11:21.619Z,34.80
2023-02-26T01:12:21.628Z,39.80
2023-02-26T01:13:21.607Z,34.32
2023-02-26T01:14:21.594Z,34.48
2023-02-26T01:15:21.600Z,34.64
2023-02-26T01:16:21.570Z,34.64
2023-02-26T01:17:21.572Z,34.00
2023-02-26T01:18:21.561Z,34.48
2023-02-26T01:19:21.531Z,34.32
2023-02-26T01:20:21.549Z,34.32
2023-02-26T01:21:21.537Z,34.48
2023-02-26T01:22:21.504Z,34.64
2023-02-26T01:23:21.497Z,34.64
2023-02-26T01:24:21.505Z,34.64
2023-02-26T01:25:21.560Z,34.32
2023-02-26T01:26:21.478Z,34.48
2023-02-26T01:27:21.464Z,34.32
2023-02-26T01:28:21.474Z,34.16
2023-02-26T01:29:21.440Z,34.32
2023-02-26T01:30:21.441Z,41.89
2023-02-26T01:31:21.539Z,34.64
2023-02-26T01:32:21.509Z,35.61
2023-02-26T01:33:21.406Z,34.48
2023-02-26T01:34:21.401Z,34.64
2023-02-26T01:35:21.376Z,34.48
2023-02-26T01:36:21.376Z,34.64
2023-02-26T01:37:21.369Z,34.64
2023-02-26T01:38:21.359Z,35.29
2023-02-26T01:39:21.345Z,34.32
2023-02-26T01:40:21.709Z,34.48
2023-02-26T01:41:23.966Z,34.32
2023-02-26T01:42:21.354Z,34.32
2023-02-26T01:43:21.316Z,34.32
2023-02-26T01:44:21.305Z,34.64
2023-02-26T01:45:21.598Z,35.29
2023-02-26T01:46:21.308Z,34.00
2023-02-26T01:47:21.289Z,34.64
2023-02-26T01:48:21.261Z,34.32
2023-02-26T01:49:21.243Z,34.48
2023-02-26T01:50:21.599Z,36.09
2023-02-26T01:51:21.248Z,34.00
2023-02-26T01:52:21.230Z,34.48
2023-02-26T01:53:21.217Z,34.16
2023-02-26T01:54:21.875Z,34.48
2023-02-26T01:55:21.510Z,34.48
2023-02-26T01:56:21.180Z,34.32
2023-02-26T01:57:21.165Z,34.48
2023-02-26T01:58:21.171Z,34.64
2023-02-26T01:59:21.140Z,34.48
2023-02-26T02:00:21.705Z,34.00
2023-02-26T02:01:21.122Z,34.16
2023-02-26T02:02:21.172Z,34.32
2023-02-26T02:03:21.228Z,35.13
2023-02-26T02:04:21.141Z,34.16
2023-02-26T02:05:21.434Z,38.35
2023-02-26T02:06:21.096Z,34.16
2023-02-26T02:07:21.085Z,34.16
2023-02-26T02:08:21.062Z,34.48
2023-02-26T02:09:21.062Z,33.68
2023-02-26T02:10:21.171Z,34.16
2023-02-26T02:11:21.021Z,34.64
2023-02-26T02:12:21.041Z,34.16
2023-02-26T02:13:21.000Z,34.48
2023-02-26T02:14:21.008Z,35.13
2023-02-26T02:15:21.308Z,34.48
2023-02-26T02:16:21.040Z,34.48
2023-02-26T02:17:20.974Z,34.16
2023-02-26T02:18:20.956Z,34.48
2023-02-26T02:19:20.927Z,34.16
2023-02-26T02:20:20.953Z,34.16
2023-02-26T02:21:20.926Z,36.58
2023-02-26T02:22:20.916Z,34.32
2023-02-26T02:23:20.908Z,34.32
2023-02-26T02:24:20.891Z,34.16
2023-02-26T02:25:20.871Z,34.32
2023-02-26T02:26:20.876Z,34.00
2023-02-26T02:27:20.893Z,34.32
2023-02-26T02:28:20.844Z,33.84
2023-02-26T02:29:20.838Z,34.16
2023-02-26T02:30:20.830Z,34.32
2023-02-26T02:31:20.886Z,34.32
2023-02-26T02:32:20.972Z,34.32
2023-02-26T02:33:20.793Z,34.16
2023-02-26T02:34:20.791Z,34.32
2023-02-26T02:35:20.782Z,35.93
2023-02-26T02:36:20.774Z,34.16
2023-02-26T02:37:20.766Z,33.84
2023-02-26T02:38:20.760Z,34.16
2023-02-26T02:39:20.727Z,33.68
2023-02-26T02:40:20.742Z,39.80
2023-02-26T02:41:20.718Z,34.16
2023-02-26T02:42:20.711Z,34.00
2023-02-26T02:43:20.707Z,33.84
2023-02-26T02:44:20.743Z,33.68
2023-02-26T02:45:20.671Z,33.84
2023-02-26T02:46:20.866Z,34.16
2023-02-26T02:47:20.673Z,33.84
2023-02-26T02:48:20.645Z,37.87
2023-02-26T02:49:20.647Z,33.84
2023-02-26T02:50:20.656Z,35.77
2023-02-26T02:51:20.607Z,33.68
2023-02-26T02:52:20.608Z,33.84
2023-02-26T02:53:20.629Z,33.84
2023-02-26T02:54:20.594Z,33.84
2023-02-26T02:55:20.591Z,34.16
2023-02-26T02:56:20.579Z,34.32
2023-02-26T02:57:20.581Z,33.84
2023-02-26T02:58:20.580Z,33.84
2023-02-26T02:59:20.577Z,34.16
2023-02-26T03:00:20.539Z,33.68
2023-02-26T03:01:20.590Z,34.32
2023-02-26T03:02:20.526Z,33.84
2023-02-26T03:03:20.553Z,42.70
2023-02-26T03:04:20.517Z,36.74
2023-02-26T03:05:20.466Z,33.84
2023-02-26T03:06:20.533Z,34.00
2023-02-26T03:07:20.469Z,34.00
2023-02-26T03:08:20.457Z,34.16
2023-02-26T03:09:20.435Z,35.93
2023-02-26T03:10:20.463Z,34.16
2023-02-26T03:11:20.636Z,34.16
2023-02-26T03:12:20.421Z,34.64
2023-02-26T03:13:20.414Z,35.77
2023-02-26T03:14:20.405Z,33.84
2023-02-26T03:15:20.374Z,36.42
2023-02-26T03:16:20.704Z,34.32
2023-02-26T03:17:20.384Z,34.00
2023-02-26T03:18:20.359Z,37.06
2023-02-26T03:19:20.337Z,34.32
2023-02-26T03:20:20.337Z,34.48
2023-02-26T03:21:20.950Z,34.64
2023-02-26T03:22:20.346Z,43.02
2023-02-26T03:23:20.302Z,34.48
2023-02-26T03:24:20.305Z,34.16
2023-02-26T03:25:20.276Z,35.13
2023-02-26T03:26:20.429Z,34.00
2023-02-26T03:27:20.263Z,34.48
2023-02-26T03:28:20.248Z,34.48
2023-02-26T03:29:20.261Z,39.32
2023-02-26T03:30:20.270Z,34.80
2023-02-26T03:31:21.055Z,34.64
2023-02-26T03:32:20.351Z,34.97
2023-02-26T03:33:20.206Z,34.48
2023-02-26T03:34:20.224Z,34.32
2023-02-26T03:35:20.195Z,34.32
2023-02-26T03:36:20.383Z,34.48
2023-02-26T03:37:20.175Z,34.16
2023-02-26T03:38:20.163Z,34.16
2023-02-26T03:39:20.165Z,34.64
2023-02-26T03:40:20.159Z,34.48
2023-02-26T03:41:20.540Z,34.32
2023-02-26T03:42:20.121Z,34.80
2023-02-26T03:43:20.127Z,34.32
2023-02-26T03:44:20.118Z,34.32
2023-02-26T03:45:20.098Z,34.32
2023-02-26T03:46:20.722Z,34.48
2023-02-26T03:47:20.063Z,34.80
2023-02-26T03:48:20.058Z,34.97
2023-02-26T03:49:20.092Z,34.64
2023-02-26T03:50:20.030Z,34.48
2023-02-26T03:51:20.958Z,34.32
2023-02-26T03:52:20.011Z,34.32
2023-02-26T03:53:20.011Z,34.32
2023-02-26T03:54:20.002Z,36.74
2023-02-26T03:55:19.995Z,34.32
2023-02-26T03:56:20.785Z,34.64
2023-02-26T03:57:19.968Z,34.16
2023-02-26T03:58:19.977Z,34.16
2023-02-26T03:59:19.969Z,34.48
2023-02-26T04:00:19.935Z,37.54
2023-02-26T04:01:20.542Z,34.32
2023-02-26T04:02:20.070Z,34.48
2023-02-26T04:03:19.913Z,34.32
2023-02-26T04:04:20.000Z,35.13
2023-02-26T04:05:19.895Z,34.80
2023-02-26T04:06:20.625Z,34.32
2023-02-26T04:07:19.865Z,35.77
2023-02-26T04:08:19.867Z,34.16
2023-02-26T04:09:19.855Z,34.32
2023-02-26T04:10:19.838Z,37.54
2023-02-26T04:11:21.070Z,34.32
2023-02-26T04:12:19.810Z,34.32
2023-02-26T04:13:19.806Z,34.48
2023-02-26T04:14:19.793Z,50.11
2023-02-26T04:15:19.806Z,34.48
2023-02-26T04:16:19.842Z,37.38
2023-02-26T04:17:19.770Z,34.32
2023-02-26T04:18:19.757Z,34.80
2023-02-26T04:19:19.760Z,34.32
2023-02-26T04:20:19.730Z,34.32
2023-02-26T04:21:19.740Z,34.16
2023-02-26T04:22:19.733Z,34.48
2023-02-26T04:23:19.710Z,34.80
2023-02-26T04:24:19.705Z,34.32
2023-02-26T04:25:19.749Z,36.25
2023-02-26T04:26:19.668Z,34.48
2023-02-26T04:27:19.681Z,34.48
2023-02-26T04:28:19.655Z,39.32
2023-02-26T04:29:19.684Z,39.64
2023-02-26T04:30:19.649Z,34.64
2023-02-26T04:31:19.940Z,34.64
2023-02-26T04:32:19.709Z,34.48
2023-02-26T04:33:19.607Z,38.35
2023-02-26T04:34:19.614Z,34.64
2023-02-26T04:35:19.594Z,34.48
2023-02-26T04:36:19.568Z,34.32
2023-02-26T04:37:19.574Z,34.48
2023-02-26T04:38:19.571Z,34.48
2023-02-26T04:39:19.549Z,39.16
2023-02-26T04:40:19.546Z,34.32
2023-02-26T04:41:19.531Z,34.48
2023-02-26T04:42:19.529Z,34.64
2023-02-26T04:43:19.565Z,34.00
2023-02-26T04:44:19.503Z,34.32
2023-02-26T04:45:19.480Z,38.03
2023-02-26T04:46:19.510Z,35.93
2023-02-26T04:47:19.479Z,34.32
2023-02-26T04:48:19.444Z,42.54
2023-02-26T04:49:19.443Z,38.19
2023-02-26T04:50:19.424Z,34.48
2023-02-26T04:51:19.433Z,34.32
2023-02-26T04:52:19.453Z,34.16
2023-02-26T04:53:19.404Z,34.80
2023-02-26T04:54:19.406Z,34.32
2023-02-26T04:55:19.402Z,34.48
2023-02-26T04:56:19.369Z,41.73
2023-02-26T04:57:19.373Z,35.61
2023-02-26T04:58:19.345Z,34.00
2023-02-26T04:59:19.361Z,34.32
2023-02-26T05:00:19.333Z,34.16
2023-02-26T05:01:19.410Z,34.64
2023-02-26T05:02:19.320Z,34.32
2023-02-26T05:03:19.304Z,34.32
2023-02-26T05:04:19.328Z,34.80
2023-02-26T05:05:19.290Z,34.48
2023-02-26T05:06:19.304Z,34.32
2023-02-26T05:07:19.274Z,34.32
2023-02-26T05:08:19.261Z,34.48
2023-02-26T05:09:19.254Z,37.22
2023-02-26T05:10:19.219Z,34.16
2023-02-26T05:11:19.224Z,35.61
2023-02-26T05:12:19.233Z,36.09
2023-02-26T05:13:19.210Z,38.83
2023-02-26T05:14:19.193Z,34.00
2023-02-26T05:15:19.196Z,34.48
2023-02-26T05:16:19.198Z,50.27
2023-02-26T05:17:19.173Z,34.48
2023-02-26T05:18:19.159Z,34.16
2023-02-26T05:19:19.158Z,34.32
2023-02-26T05:20:19.129Z,37.22
2023-02-26T05:21:19.130Z,35.13
2023-02-26T05:22:19.112Z,40.12
2023-02-26T05:23:19.115Z,34.00
2023-02-26T05:24:19.096Z,34.80
2023-02-26T05:25:19.088Z,34.32
2023-02-26T05:26:19.106Z,34.64
2023-02-26T05:27:19.073Z,37.54
2023-02-26T05:28:19.048Z,34.64
2023-02-26T05:29:19.056Z,34.64
2023-02-26T05:30:19.038Z,34.16
2023-02-26T05:31:19.046Z,34.48
2023-02-26T05:32:19.091Z,34.48
2023-02-26T05:33:19.015Z,34.80
2023-02-26T05:34:19.016Z,34.32
2023-02-26T05:35:18.981Z,34.80
2023-02-26T05:36:18.978Z,34.48
2023-02-26T05:37:18.972Z,35.77
2023-02-26T05:38:18.969Z,34.64
2023-02-26T05:39:18.962Z,34.64
2023-02-26T05:40:18.950Z,35.13
2023-02-26T05:41:18.926Z,34.80
2023-02-26T05:42:18.925Z,35.29
2023-02-26T05:43:18.845Z,34.97
2023-02-26T05:44:18.910Z,34.64
2023-02-26T05:45:18.894Z,34.64
2023-02-26T05:46:18.948Z,35.77
2023-02-26T05:47:18.824Z,34.97
2023-02-26T05:48:18.800Z,35.29
2023-02-26T05:49:18.858Z,34.64
2023-02-26T05:50:18.831Z,34.97
2023-02-26T05:51:18.847Z,34.80
2023-02-26T05:52:18.833Z,34.48
2023-02-26T05:53:18.758Z,32.87
2023-02-26T05:54:18.794Z,34.80
2023-02-26T05:55:18.736Z,34.64
2023-02-26T05:56:18.735Z,35.29
2023-02-26T05:57:18.719Z,36.09
2023-02-26T05:58:18.708Z,36.74
2023-02-26T05:59:18.729Z,35.13
2023-02-26T06:00:18.669Z,35.13
2023-02-26T06:01:18.687Z,35.93
2023-02-26T06:02:18.698Z,37.06
2023-02-26T06:03:18.713Z,34.16
2023-02-26T06:04:18.639Z,35.13
2023-02-26T06:05:18.632Z,34.32
2023-02-26T06:06:18.626Z,34.97
2023-02-26T06:07:18.622Z,38.51
2023-02-26T06:08:18.608Z,34.97
2023-02-26T06:09:18.608Z,47.86
2023-02-26T06:10:18.580Z,38.67
2023-02-26T06:11:18.593Z,34.64
2023-02-26T06:12:18.563Z,34.97
2023-02-26T06:13:18.554Z,46.57
2023-02-26T06:14:18.547Z,35.13
2023-02-26T06:15:18.550Z,35.29
2023-02-26T06:16:18.563Z,37.54
2023-02-26T06:17:18.516Z,35.13
2023-02-26T06:18:18.526Z,34.80
2023-02-26T06:19:18.505Z,34.64
2023-02-26T06:20:18.479Z,34.64
2023-02-26T06:21:18.474Z,34.80
2023-02-26T06:22:19.238Z,34.64
2023-02-26T06:23:18.454Z,35.93
2023-02-26T06:24:18.467Z,34.64
2023-02-26T06:25:18.442Z,34.97
2023-02-26T06:26:18.407Z,34.64
2023-02-26T06:27:18.726Z,34.64
2023-02-26T06:28:18.397Z,37.22
2023-02-26T06:29:18.399Z,34.80
2023-02-26T06:30:18.394Z,34.97
2023-02-26T06:31:18.399Z,34.97
2023-02-26T06:32:19.246Z,34.80
2023-02-26T06:33:18.356Z,34.64
2023-02-26T06:34:18.343Z,34.48
2023-02-26T06:35:18.343Z,34.48
2023-02-26T06:36:18.335Z,34.64
2023-02-26T06:37:18.647Z,34.97
2023-02-26T06:38:18.304Z,35.29
2023-02-26T06:39:18.304Z,35.13
2023-02-26T06:40:18.310Z,34.64
2023-02-26T06:41:18.305Z,34.64
2023-02-26T06:42:20.159Z,34.48
2023-02-26T06:43:18.265Z,34.64
2023-02-26T06:44:18.236Z,34.32
2023-02-26T06:45:18.257Z,34.64
2023-02-26T06:46:18.291Z,35.45
2023-02-26T06:47:18.526Z,35.13
2023-02-26T06:48:18.210Z,34.64
2023-02-26T06:49:18.197Z,34.97
2023-02-26T06:50:18.196Z,34.80
2023-02-26T06:51:18.186Z,34.64
2023-02-26T06:52:19.036Z,34.64
2023-02-26T06:53:18.159Z,34.80
2023-02-26T06:54:18.163Z,37.87
2023-02-26T06:55:18.163Z,34.64
2023-02-26T06:56:18.128Z,34.80
2023-02-26T06:57:18.141Z,37.54
2023-02-26T06:58:18.127Z,35.77
2023-02-26T06:59:18.117Z,34.64
2023-02-26T07:00:18.156Z,34.97
2023-02-26T07:01:18.124Z,35.13
2023-02-26T07:02:18.903Z,35.13
2023-02-26T07:03:18.057Z,34.97
2023-02-26T07:04:20.353Z,34.80
2023-02-26T07:05:18.050Z,35.13
2023-02-26T07:06:38.023Z,34.64
2023-02-26T07:07:18.327Z,34.64
2023-02-26T07:08:17.998Z,34.80
2023-02-26T07:09:18.082Z,34.97
2023-02-26T07:10:17.976Z,35.77
2023-02-26T07:11:17.970Z,34.48
2023-02-26T07:12:18.702Z,38.03
2023-02-26T07:13:17.954Z,34.97
2023-02-26T07:14:17.944Z,34.80
2023-02-26T07:15:17.929Z,43.18
2023-02-26T07:16:17.913Z,34.97
2023-02-26T07:17:18.223Z,35.77
2023-02-26T07:18:17.900Z,34.97
2023-02-26T07:19:17.902Z,34.80
2023-02-26T07:20:17.872Z,36.42
2023-02-26T07:21:17.909Z,35.29
2023-02-26T07:22:19.795Z,34.64
2023-02-26T07:23:17.871Z,34.97
2023-02-26T07:24:17.846Z,34.64
2023-02-26T07:25:17.843Z,34.97
2023-02-26T07:26:17.823Z,34.64
2023-02-26T07:27:17.869Z,34.80
2023-02-26T07:28:17.793Z,34.97
2023-02-26T07:29:17.791Z,34.97
2023-02-26T07:30:17.775Z,35.13
2023-02-26T07:31:17.865Z,37.54
2023-02-26T07:32:18.546Z,35.29
2023-02-26T07:33:17.757Z,35.13
2023-02-26T07:34:17.750Z,35.29
2023-02-26T07:35:17.736Z,36.09
2023-02-26T07:36:17.714Z,41.41
2023-02-26T07:37:17.701Z,35.45
2023-02-26T07:38:19.989Z,35.61
2023-02-26T07:39:17.688Z,35.13
2023-02-26T07:40:17.687Z,35.13
2023-02-26T07:41:17.677Z,36.25
2023-02-26T07:42:17.657Z,37.06
2023-02-26T07:43:17.659Z,35.29
2023-02-26T07:44:17.669Z,35.29
2023-02-26T07:45:17.619Z,35.77
2023-02-26T07:46:17.741Z,35.29
2023-02-26T07:47:17.608Z,35.61
2023-02-26T07:48:17.726Z,35.29
2023-02-26T07:49:17.592Z,35.93
2023-02-26T07:50:17.573Z,35.45
2023-02-26T07:51:17.556Z,35.61
2023-02-26T07:52:17.584Z,51.08
2023-02-26T07:53:17.564Z,35.45
2023-02-26T07:54:17.533Z,36.09
2023-02-26T07:55:17.523Z,36.09
2023-02-26T07:56:17.530Z,43.99
2023-02-26T07:57:17.496Z,35.77
2023-02-26T07:58:17.513Z,40.61
2023-02-26T07:59:17.482Z,36.42
2023-02-26T08:00:17.472Z,36.74
2023-02-26T08:01:17.499Z,44.79
2023-02-26T08:02:17.444Z,36.90
2023-02-26T08:03:17.523Z,46.73
2023-02-26T08:04:17.461Z,37.22
2023-02-26T08:05:17.448Z,36.90
2023-02-26T08:06:17.413Z,41.09
2023-02-26T08:07:17.409Z,37.22
2023-02-26T08:08:17.442Z,37.38
2023-02-26T08:09:17.369Z,40.93
2023-02-26T08:10:17.379Z,43.02
2023-02-26T08:11:17.352Z,38.03
2023-02-26T08:12:17.385Z,38.67
2023-02-26T08:13:17.337Z,37.06
2023-02-26T08:14:17.331Z,36.58
2023-02-26T08:15:17.324Z,38.35
2023-02-26T08:16:17.348Z,50.11
2023-02-26T08:17:17.299Z,36.74
2023-02-26T08:18:17.303Z,36.74
2023-02-26T08:19:17.274Z,36.74
2023-02-26T08:20:17.270Z,36.74
2023-02-26T08:21:17.258Z,38.83
2023-02-26T08:22:17.267Z,36.74
2023-02-26T08:23:17.238Z,37.87
2023-02-26T08:24:17.225Z,37.06
2023-02-26T08:25:17.306Z,41.73
2023-02-26T08:26:17.205Z,40.61
2023-02-26T08:27:17.212Z,39.16
2023-02-26T08:28:17.195Z,43.34
2023-02-26T08:29:17.177Z,37.54
2023-02-26T08:30:17.202Z,37.38
2023-02-26T08:31:17.217Z,38.19
2023-02-26T08:32:17.233Z,36.90
2023-02-26T08:33:17.135Z,36.74
2023-02-26T08:34:17.127Z,36.74
2023-02-26T08:35:17.109Z,37.22
2023-02-26T08:36:17.152Z,36.90
2023-02-26T08:37:17.085Z,37.38
2023-02-26T08:38:17.103Z,56.88
2023-02-26T08:39:17.073Z,37.06
2023-02-26T08:40:17.064Z,37.38
2023-02-26T08:41:17.055Z,37.06
2023-02-26T08:42:17.046Z,43.83
2023-02-26T08:43:17.062Z,40.77
2023-02-26T08:44:17.036Z,37.87
2023-02-26T08:45:17.046Z,37.87
2023-02-26T08:46:17.080Z,40.61
2023-02-26T08:47:24.487Z,38.99
2023-02-26T08:48:17.021Z,37.87
2023-02-26T08:49:16.982Z,38.35
2023-02-26T08:50:16.989Z,39.80
2023-02-26T08:51:16.951Z,40.93
2023-02-26T08:52:16.948Z,38.83
2023-02-26T08:53:16.973Z,38.67
2023-02-26T08:54:16.959Z,39.48
2023-02-26T08:55:16.935Z,39.48
2023-02-26T08:56:16.917Z,39.64
2023-02-26T08:57:16.903Z,46.89
2023-02-26T08:58:16.904Z,40.12
2023-02-26T08:59:16.895Z,40.44
2023-02-26T09:00:16.874Z,40.61
2023-02-26T09:01:16.857Z,40.12
2023-02-26T09:02:16.993Z,39.80
2023-02-26T09:03:16.905Z,40.12
2023-02-26T09:04:16.826Z,40.12
2023-02-26T09:05:16.817Z,40.28
2023-02-26T09:06:16.839Z,40.12
2023-02-26T09:07:16.802Z,40.12
2023-02-26T09:08:17.110Z,40.12
2023-02-26T09:09:16.786Z,40.93
2023-02-26T09:10:16.772Z,40.77
2023-02-26T09:11:16.758Z,40.77
2023-02-26T09:12:16.750Z,40.77
2023-02-26T09:13:17.525Z,42.06
2023-02-26T09:14:16.733Z,40.77
2023-02-26T09:15:16.703Z,42.06
2023-02-26T09:16:16.985Z,41.09
2023-02-26T09:17:16.682Z,42.06
2023-02-26T09:18:16.926Z,41.41
2023-02-26T09:19:16.677Z,42.06
2023-02-26T09:20:16.656Z,40.61
2023-02-26T09:21:16.653Z,41.09
2023-02-26T09:22:16.633Z,40.61
2023-02-26T09:23:16.957Z,40.93
2023-02-26T09:24:16.622Z,40.77
2023-02-26T09:25:16.609Z,40.28
2023-02-26T09:26:16.608Z,40.12
2023-02-26T09:27:16.593Z,40.77
2023-02-26T09:28:16.627Z,41.57
2023-02-26T09:29:16.572Z,41.09
2023-02-26T09:30:16.558Z,40.93
2023-02-26T09:31:16.652Z,41.09
2023-02-26T09:32:16.636Z,40.61
2023-02-26T09:33:16.542Z,40.93
2023-02-26T09:34:16.523Z,40.77
2023-02-26T09:35:16.506Z,42.54
2023-02-26T09:36:16.508Z,41.25
2023-02-26T09:37:16.514Z,41.09
2023-02-26T09:38:16.487Z,41.09
2023-02-26T09:39:16.506Z,41.89
2023-02-26T09:40:16.446Z,42.70
2023-02-26T09:41:16.434Z,42.38
2023-02-26T09:42:16.438Z,41.41
2023-02-26T09:43:17.270Z,42.54
2023-02-26T09:44:16.418Z,41.25
2023-02-26T09:45:16.413Z,41.25
2023-02-26T09:46:16.458Z,41.41
2023-02-26T09:47:16.407Z,41.25
2023-02-26T09:48:16.387Z,41.41
2023-02-26T09:49:16.351Z,41.41
2023-02-26T09:50:16.356Z,41.25
2023-02-26T09:51:16.335Z,41.57
2023-02-26T09:52:16.339Z,41.73
2023-02-26T09:53:17.140Z,42.22
2023-02-26T09:54:16.316Z,42.38
2023-02-26T09:55:16.300Z,41.89
2023-02-26T09:56:16.297Z,41.41
2023-02-26T09:57:16.274Z,45.76
2023-02-26T09:58:18.728Z,42.86
2023-02-26T09:59:16.260Z,43.02
2023-02-26T10:00:16.302Z,42.70
2023-02-26T10:01:16.242Z,42.38
2023-02-26T10:02:16.231Z,42.70
2023-02-26T10:03:16.977Z,42.70
2023-02-26T10:04:17.795Z,43.34
2023-02-26T10:05:16.194Z,56.56
2023-02-26T10:06:16.194Z,43.51
2023-02-26T10:07:16.200Z,43.34
2023-02-26T10:08:16.194Z,43.51
2023-02-26T10:09:16.155Z,43.18
2023-02-26T10:10:16.157Z,43.34
2023-02-26T10:11:16.128Z,43.02
2023-02-26T10:12:16.133Z,42.86
2023-02-26T10:13:16.697Z,42.86
2023-02-26T10:14:16.157Z,43.02
2023-02-26T10:15:16.096Z,42.86
2023-02-26T10:16:16.141Z,43.02
2023-02-26T10:17:16.110Z,42.54
2023-02-26T10:18:16.108Z,42.38
2023-02-26T10:19:16.045Z,42.70
2023-02-26T10:20:16.060Z,42.86
2023-02-26T10:21:16.039Z,42.86
2023-02-26T10:22:16.023Z,42.38
2023-02-26T10:23:16.468Z,42.54
2023-02-26T10:24:16.012Z,42.86
2023-02-26T10:25:15.990Z,42.38
2023-02-26T10:26:15.970Z,42.38
2023-02-26T10:27:16.031Z,42.86
2023-02-26T10:28:15.958Z,42.38
2023-02-26T10:29:15.944Z,42.54
2023-02-26T10:30:15.950Z,43.18
2023-02-26T10:31:15.944Z,42.54
2023-02-26T10:32:16.049Z,42.86
2023-02-26T10:33:15.917Z,42.54
2023-02-26T10:34:15.917Z,42.38
2023-02-26T10:35:15.896Z,42.86
2023-02-26T10:36:15.892Z,42.54
2023-02-26T10:37:15.859Z,42.54
2023-02-26T10:38:15.866Z,42.38
2023-02-26T10:39:15.843Z,42.38
2023-02-26T10:40:15.844Z,43.18
2023-02-26T10:41:15.833Z,42.54
2023-02-26T10:42:15.814Z,42.54
2023-02-26T10:43:15.793Z,42.86
2023-02-26T10:44:15.797Z,43.18
2023-02-26T10:45:15.768Z,42.70
2023-02-26T10:46:15.818Z,42.22
2023-02-26T10:47:15.792Z,42.38
2023-02-26T10:48:15.758Z,42.38
2023-02-26T10:49:15.738Z,42.70
2023-02-26T10:50:15.715Z,42.06
2023-02-26T10:51:15.714Z,42.38
2023-02-26T10:52:15.696Z,42.38
2023-02-26T10:53:15.681Z,41.89
2023-02-26T10:54:15.686Z,42.22
2023-02-26T10:55:15.674Z,42.86
2023-02-26T10:56:15.672Z,42.06
2023-02-26T10:57:15.640Z,42.54
2023-02-26T10:58:15.639Z,44.79
2023-02-26T10:59:16.760Z,43.51
2023-02-26T11:00:15.616Z,43.51
2023-02-26T11:01:15.653Z,43.18
2023-02-26T11:02:15.665Z,42.86
2023-02-26T11:03:15.579Z,42.86
2023-02-26T11:04:15.600Z,43.02
2023-02-26T11:05:15.570Z,43.02
2023-02-26T11:06:15.564Z,42.86
2023-02-26T11:07:15.545Z,41.25
2023-02-26T11:08:15.547Z,43.02
2023-02-26T11:09:15.542Z,42.86
2023-02-26T11:10:15.517Z,43.02
2023-02-26T11:11:15.512Z,42.70
2023-02-26T11:12:15.500Z,42.86
2023-02-26T11:13:15.492Z,43.02
2023-02-26T11:14:15.509Z,44.47
2023-02-26T11:15:15.464Z,43.02
2023-02-26T11:16:15.517Z,42.86
2023-02-26T11:17:15.454Z,43.18
2023-02-26T11:18:15.444Z,43.02
2023-02-26T11:19:15.427Z,43.02
2023-02-26T11:20:15.435Z,42.86
2023-02-26T11:21:15.411Z,43.02
2023-02-26T11:22:15.394Z,43.67
2023-02-26T11:23:15.385Z,43.83
2023-02-26T11:24:15.383Z,43.67
2023-02-26T11:25:15.388Z,43.34
2023-02-26T11:26:15.365Z,43.18
2023-02-26T11:27:15.339Z,43.34
2023-02-26T11:28:15.336Z,43.02
2023-02-26T11:29:15.338Z,43.18
2023-02-26T11:30:15.383Z,45.76
2023-02-26T11:31:15.429Z,43.83
2023-02-26T11:32:15.422Z,42.86
2023-02-26T11:33:15.280Z,43.18
2023-02-26T11:34:15.276Z,43.51
2023-02-26T11:35:15.268Z,43.34
2023-02-26T11:36:15.252Z,42.38
2023-02-26T11:37:15.241Z,42.86
2023-02-26T11:38:17.221Z,43.02
2023-02-26T11:39:15.229Z,42.86
2023-02-26T11:40:15.266Z,42.70
2023-02-26T11:41:15.197Z,42.70
2023-02-26T11:42:15.200Z,42.54
2023-02-26T11:43:15.177Z,46.73
2023-02-26T11:44:15.174Z,41.73
2023-02-26T11:45:15.154Z,42.06
2023-02-26T11:46:15.181Z,45.44
2023-02-26T11:47:15.137Z,42.54
2023-02-26T11:48:15.140Z,42.70
2023-02-26T11:49:15.111Z,42.38
2023-02-26T11:50:15.146Z,42.38
2023-02-26T11:51:15.086Z,42.70
2023-02-26T11:52:15.081Z,43.02
2023-02-26T11:53:15.068Z,43.02
2023-02-26T11:54:15.089Z,43.18
2023-02-26T11:55:15.052Z,43.51
2023-02-26T11:56:15.042Z,43.34
2023-02-26T11:57:15.038Z,43.51
2023-02-26T11:58:15.033Z,43.67
2023-02-26T11:59:15.010Z,42.70
2023-02-26T12:00:14.998Z,42.86
2023-02-26T12:01:14.990Z,41.89
2023-02-26T12:02:15.092Z,41.41
2023-02-26T12:03:14.968Z,41.25
2023-02-26T12:04:14.977Z,42.22
2023-02-26T12:05:14.944Z,40.93
2023-02-26T12:06:14.994Z,41.09
2023-02-26T12:07:14.942Z,40.93
2023-02-26T12:08:14.903Z,49.79
2023-02-26T12:09:14.918Z,47.86
2023-02-26T12:10:14.900Z,41.57
2023-02-26T12:11:14.882Z,41.57
2023-02-26T12:12:14.865Z,46.08
2023-02-26T12:13:14.864Z,41.73
2023-02-26T12:14:14.855Z,42.22
2023-02-26T12:15:14.834Z,41.89
2023-02-26T12:16:14.915Z,42.22
2023-02-26T12:17:14.830Z,41.89
2023-02-26T12:18:15.769Z,42.22
2023-02-26T12:19:15.169Z,43.34
2023-02-26T12:20:14.796Z,42.38
2023-02-26T12:21:14.774Z,42.22
2023-02-26T12:22:14.785Z,42.54
2023-02-26T12:23:15.070Z,42.54
2023-02-26T12:24:15.212Z,42.54
2023-02-26T12:25:14.943Z,42.38
2023-02-26T12:26:14.737Z,44.96
2023-02-26T12:27:14.710Z,43.02
2023-02-26T12:28:14.718Z,43.02
2023-02-26T12:29:14.875Z,44.15
2023-02-26T12:30:14.697Z,43.02
2023-02-26T12:31:14.892Z,43.51
2023-02-26T12:32:14.799Z,42.54
2023-02-26T12:33:14.659Z,42.22
2023-02-26T12:34:15.417Z,42.22
2023-02-26T12:35:14.642Z,41.89
2023-02-26T12:36:14.630Z,41.89
2023-02-26T12:37:14.616Z,40.77
2023-02-26T12:38:15.399Z,41.09
2023-02-26T12:39:14.904Z,41.09
2023-02-26T12:40:14.597Z,43.02
2023-02-26T12:41:14.581Z,42.86
2023-02-26T12:42:14.556Z,42.86
2023-02-26T12:43:14.551Z,43.51
2023-02-26T12:44:15.209Z,43.51
2023-02-26T12:45:14.533Z,43.67
2023-02-26T12:46:14.575Z,43.67
2023-02-26T12:47:14.505Z,43.34
2023-02-26T12:48:14.493Z,43.51
2023-02-26T12:49:14.514Z,43.67
2023-02-26T12:50:14.487Z,43.02
2023-02-26T12:51:14.494Z,43.51
2023-02-26T12:52:14.567Z,43.34